Weather History for Hammond, LA

Change the Weather History Date:

Friday, February 15, 2013

  Actual Average (KMSY) Record (KMSY)
Temperature  
Mean Temperature 52 °F -  
Max Temperature 68 °F 67 °F 82 °F (1989)
Min Temperature 35 °F 49 °F 29 °F (1960)
Degree Days  
Heating Degree Days 14    
Growing Degree Days 2 (Base 50)    
Moisture  
Dew Point 36 °F    
Average Humidity 62    
Maximum Humidity 93    
Minimum Humidity 28    
Precipitation  
Precipitation 0.00 in - - ()
Sea Level Pressure  
Sea Level Pressure 30.15 in    
Wind  
Wind Speed 2 mph (NNW)    
Max Wind Speed 12 mph    
Max Gust Speed 17 mph    
Visibility 10 miles    
Events      
Averages and records for this station are not official NWS values.
T = Trace of Precipitation, MM = Missing Value Source: NWS Daily Summary

Daily Weather History Graph

Daily Weather History Graph

Search for Another Location

Airport:

Trip Planner

Search our weather history database for the weather conditions in past years. The results will help you decide how hot, cold, wet, or windy it might be!

Date:

Astronomy

Feb. 15, 2013 Rise Set
Actual Time 6:41 AM CST 5:50 PM CST
Civil Twilight 6:17 AM CST 6:14 PM CST
Nautical Twilight 5:49 AM CST 6:42 PM CST
Astronomical Twilight 5:21 AM CST 7:10 PM CST
Moon 9:45 AM CST (2/15) 11:21 PM CST (2/15)
Length of Visible Light 11h 57m
Length of Day
11h 08m
Waxing Crescent, 30% of the Moon is Illuminated
Feb 15
Waxing Crescent
Feb 17
First Quarter
Feb 25
Full
Mar 4
Last Quarter
Mar 11
New

Hourly Weather History & Observations

Time (CST) Temp. Windchill Dew Point Humidity Pressure Visibility Wind Dir Wind Speed Gust Speed Precip Events Conditions
12:15 AM 41.0 °F - 37.4 °F 87% 30.12 in 10.0 mi Calm Calm - N/A   Clear
12:35 AM 41.0 °F - 39.2 °F 93% 30.12 in 10.0 mi Calm Calm - N/A   Clear
12:55 AM 39.2 °F - 37.4 °F 93% 30.13 in 10.0 mi Calm Calm - N/A   Clear
1:15 AM 39.2 °F - 37.4 °F 93% 30.13 in 10.0 mi Calm Calm - N/A   Clear
1:35 AM 39.2 °F - 37.4 °F 93% 30.13 in 10.0 mi Calm Calm - N/A   Clear
1:55 AM 39.2 °F - 37.4 °F 93% 30.14 in 10.0 mi Calm Calm - N/A   Clear
2:15 AM 39.2 °F - 37.4 °F 93% 30.13 in 10.0 mi Calm Calm - N/A   Clear
2:35 AM 37.4 °F - 35.6 °F 93% 30.13 in 10.0 mi Calm Calm - N/A   Clear
2:55 AM 37.4 °F - 35.6 °F 93% 30.13 in 10.0 mi Calm Calm - N/A   Clear
3:15 AM 39.2 °F - 37.4 °F 93% 30.13 in 10.0 mi Calm Calm - N/A   Clear
3:35 AM 37.4 °F - 35.6 °F 93% 30.13 in 10.0 mi Calm Calm - N/A   Clear
3:55 AM 37.4 °F - 35.6 °F 93% 30.13 in 10.0 mi Calm Calm - N/A   Clear
4:15 AM 37.4 °F - 35.6 °F 93% 30.13 in 10.0 mi Calm Calm - N/A   Clear
4:35 AM 37.4 °F - 35.6 °F 93% 30.14 in 10.0 mi Calm Calm - N/A   Clear
4:55 AM 37.4 °F - 35.6 °F 93% 30.14 in 10.0 mi Calm Calm - N/A   Clear
5:15 AM 37.4 °F - 33.8 °F 87% 30.14 in 10.0 mi Calm Calm - N/A   Clear
5:35 AM 37.4 °F - 35.6 °F 93% 30.15 in 10.0 mi Calm Calm - N/A   Clear
5:55 AM 37.4 °F - 33.8 °F 87% 30.16 in 10.0 mi Calm Calm - N/A   Clear
6:15 AM 35.6 °F - 33.8 °F 93% 30.16 in 10.0 mi Calm Calm - N/A   Clear
6:35 AM 35.6 °F - 33.8 °F 93% 30.17 in 10.0 mi Calm Calm - N/A   Clear
6:55 AM 35.6 °F - 33.8 °F 93% 30.17 in 10.0 mi Calm Calm - N/A   Clear
7:15 AM 37.4 °F - 35.6 °F 93% 30.18 in 10.0 mi Calm Calm - N/A   Clear
7:35 AM 39.2 °F - 37.4 °F 93% 30.18 in 10.0 mi Calm Calm - N/A   Clear
7:55 AM 42.8 °F - 41.0 °F 93% 30.19 in 10.0 mi Calm Calm - N/A   Clear
8:15 AM 46.4 °F 45.2 °F 39.2 °F 76% 30.20 in 10.0 mi NNW 3.5 mph - N/A   Clear
8:35 AM 48.2 °F - 41.0 °F 76% 30.20 in 10.0 mi Calm Calm - N/A   Clear
8:55 AM 51.8 °F - 42.8 °F 71% 30.20 in 10.0 mi Calm Calm - N/A   Clear
9:15 AM 53.6 °F - 42.8 °F 67% 30.20 in 10.0 mi Calm Calm - N/A   Clear
9:35 AM 55.4 °F - 41.0 °F 58% 30.20 in 10.0 mi Calm Calm - N/A   Clear
9:55 AM 59.0 °F - 37.4 °F 45% 30.20 in 10.0 mi Calm Calm - N/A   Clear
10:15 AM 59.0 °F - 33.8 °F 39% 30.20 in 10.0 mi Calm Calm - N/A   Clear
10:35 AM 60.8 °F - 35.6 °F 39% 30.20 in 10.0 mi North 5.8 mph - N/A   Clear
10:55 AM 60.8 °F - 35.6 °F 39% 30.19 in 10.0 mi NNW 4.6 mph - N/A   Clear
11:15 AM 62.6 °F - 33.8 °F 34% 30.18 in 10.0 mi NNW 3.5 mph - N/A   Clear
11:55 AM 64.4 °F - 33.8 °F 32% 30.17 in 10.0 mi NNE 4.6 mph - N/A   Clear
12:15 PM 64.4 °F - 33.8 °F 32% 30.16 in 10.0 mi North 5.8 mph - N/A   Clear
12:35 PM 64.4 °F - 32.0 °F 30% 30.14 in 10.0 mi Calm Calm - N/A   Clear
12:55 PM 66.2 °F - 32.0 °F 28% 30.13 in 10.0 mi NNE 6.9 mph - N/A   Clear
1:15 PM 66.2 °F - 33.8 °F 30% 30.12 in 10.0 mi North 10.4 mph - N/A   Clear
1:35 PM 66.2 °F - 33.8 °F 30% 30.12 in 10.0 mi WNW 5.8 mph - N/A   Clear
1:55 PM 66.2 °F - 32.0 °F 28% 30.11 in 10.0 mi West 5.8 mph - N/A   Clear
2:15 PM 68.0 °F - 33.8 °F 28% 30.11 in 10.0 mi North 10.4 mph - N/A   Clear
2:35 PM 66.2 °F - 32.0 °F 28% 30.10 in 10.0 mi NW 3.5 mph - N/A   Clear
2:55 PM 66.2 °F - 32.0 °F 28% 30.10 in 10.0 mi WNW 9.2 mph - N/A   Clear
3:15 PM 66.2 °F - 33.8 °F 30% 30.10 in 10.0 mi North 4.6 mph - N/A   Clear
3:35 PM 66.2 °F - 33.8 °F 30% 30.10 in 10.0 mi North 3.5 mph - N/A   Clear
3:55 PM 66.2 °F - 32.0 °F 28% 30.10 in 10.0 mi NNW 4.6 mph - N/A   Scattered Clouds
4:15 PM 66.2 °F - 32.0 °F 28% 30.10 in 10.0 mi NW 8.1 mph - N/A   Scattered Clouds
4:35 PM 64.4 °F - 32.0 °F 30% 30.10 in 10.0 mi NW 8.1 mph - N/A   Clear
4:55 PM 64.4 °F - 33.8 °F 32% 30.09 in 10.0 mi NW 3.5 mph - N/A   Clear
5:15 PM 64.4 °F - 33.8 °F 32% 30.10 in 10.0 mi NNW 5.8 mph - N/A   Clear
5:35 PM 62.6 °F - 35.6 °F 37% 30.10 in 10.0 mi NNW 3.5 mph - N/A   Clear
5:55 PM 57.2 °F - 39.2 °F 51% 30.10 in 10.0 mi Calm Calm - N/A   Clear
6:15 PM 57.2 °F - 39.2 °F 51% 30.10 in 10.0 mi Calm Calm - N/A   Scattered Clouds
6:35 PM 53.6 °F - 41.0 °F 62% 30.11 in 10.0 mi NNW 4.6 mph - N/A   Scattered Clouds
6:55 PM 53.6 °F - 41.0 °F 62% 30.12 in 10.0 mi Calm Calm - N/A   Clear
7:15 PM 51.8 °F - 41.0 °F 67% 30.13 in 10.0 mi Calm Calm - N/A   Clear
7:35 PM 51.8 °F - 41.0 °F 67% 30.14 in 10.0 mi NW 6.9 mph - N/A   Clear
7:55 PM 55.4 °F - 39.2 °F 54% 30.15 in 10.0 mi NNW 10.4 mph 17.3 mph N/A   Clear
8:15 PM 55.4 °F - 37.4 °F 51% 30.15 in 10.0 mi NNW 11.5 mph - N/A   Clear
8:35 PM 53.6 °F - 37.4 °F 54% 30.16 in 10.0 mi NNW 11.5 mph - N/A   Clear
8:55 PM 53.6 °F - 37.4 °F 54% 30.17 in 10.0 mi NNW 11.5 mph 17.3 mph N/A   Clear
9:15 PM 53.6 °F - 37.4 °F 54% 30.18 in 10.0 mi North 10.4 mph - N/A   Clear
9:35 PM 51.8 °F - 39.2 °F 62% 30.18 in 10.0 mi North 9.2 mph - N/A   Clear
9:55 PM 51.8 °F - 39.2 °F 62% 30.18 in 10.0 mi North 9.2 mph - N/A   Scattered Clouds
10:15 PM 51.8 °F - 39.2 °F 62% 30.19 in 10.0 mi NNW 10.4 mph 17.3 mph N/A   Overcast
10:35 PM 51.8 °F - 39.2 °F 62% 30.19 in 10.0 mi NNW 8.1 mph - N/A   Mostly Cloudy
10:55 PM 51.8 °F - 37.4 °F 58% 30.19 in 10.0 mi North 9.2 mph - N/A   Scattered Clouds
11:15 PM 50.0 °F - 39.2 °F 66% 30.19 in 10.0 mi NNW 8.1 mph - N/A   Clear
11:35 PM 50.0 °F - 37.4 °F 62% 30.19 in 10.0 mi NNW 6.9 mph - N/A   Clear
11:55 PM 50.0 °F - 37.4 °F 62% 30.19 in 10.0 mi NNW 5.8 mph - N/A   Clear